Nettleham, United Kingdom
Current Conditions -  °F | °C
As of 3:50 AM on Thursday 29 Jan 2015 (Local Time) from EGXP Reporting Station
Scattered Clouds Scattered Clouds  
Wind Chill: 22°   Ceiling: Unl
Heat Index: 34°   Visibility: 6mi
Dew Point: 30°   Wind: 22mph
Humidity: 87%   Direction: 250°WSW
Pressure: 29.15"   Gusts: NA
Location:  53.27°N, 0.49°W
Report Text: EGXP 290350Z AUTO 25019KT 9999 // FEW021/// SCT032/// 01/M01 Q0987
Loading
Personal Weather Stations






























Interactive Weather Map New forecast layout! Learn more

10-Day Weather Forecast

Advertisements
Track Severe Weather on mobile